createdAt,value
2018-09-11T00:00:23.860Z,97976.00
2018-09-11T00:02:53.055Z,97984.00
2018-09-11T00:05:22.237Z,97976.00
2018-09-11T00:07:54.396Z,97973.00
2018-09-11T00:10:23.895Z,97975.00
2018-09-11T00:12:53.337Z,97968.00
2018-09-11T00:15:22.630Z,97970.00
2018-09-11T00:17:51.820Z,97981.00
2018-09-11T00:20:21.004Z,97976.00
2018-09-11T00:22:50.191Z,97983.00
2018-09-11T00:25:19.372Z,97971.00
2018-09-11T00:27:48.561Z,97969.00
2018-09-11T00:30:17.728Z,97979.00
2018-09-11T00:32:46.937Z,97982.00
2018-09-11T00:35:16.112Z,97969.00
2018-09-11T00:37:45.304Z,97970.00
2018-09-11T00:40:14.510Z,97970.00
2018-09-11T00:42:43.704Z,97972.00
2018-09-11T00:45:12.891Z,97977.00
2018-09-11T00:47:48.771Z,97974.00
2018-09-11T00:50:17.952Z,97969.00
2018-09-11T00:52:47.166Z,97975.00
2018-09-11T00:55:16.356Z,97978.00
2018-09-11T00:57:45.600Z,97979.00
2018-09-11T01:00:14.769Z,97994.00
2018-09-11T01:02:43.964Z,97986.00
2018-09-11T01:05:13.149Z,97979.00
2018-09-11T01:07:42.349Z,97987.00
2018-09-11T01:10:11.972Z,97993.00
2018-09-11T01:12:41.164Z,97999.00
2018-09-11T01:15:10.832Z,97997.00
2018-09-11T01:17:40.033Z,98008.00
2018-09-11T01:20:09.747Z,98005.00
2018-09-11T01:22:39.020Z,98018.00
2018-09-11T01:25:08.216Z,98008.00
2018-09-11T01:27:37.409Z,98016.00
2018-09-11T01:30:07.196Z,98010.00
2018-09-11T01:32:36.408Z,98012.00
2018-09-11T01:35:05.582Z,98013.00
2018-09-11T01:37:34.789Z,98024.00
2018-09-11T01:40:03.989Z,98023.00
2018-09-11T01:42:33.204Z,98011.00
2018-09-11T01:45:02.456Z,98014.00
2018-09-11T01:47:31.663Z,98013.00
2018-09-11T01:50:00.850Z,98013.00
2018-09-11T01:52:30.056Z,98009.00
2018-09-11T01:54:59.235Z,98015.00
2018-09-11T01:57:28.461Z,98007.00
2018-09-11T01:59:57.641Z,98004.00
2018-09-11T02:02:26.844Z,98007.00
2018-09-11T02:04:56.020Z,98014.00
2018-09-11T02:07:25.209Z,98003.00
2018-09-11T02:09:54.440Z,97998.00
2018-09-11T02:12:23.628Z,97997.00
2018-09-11T02:14:52.811Z,97998.00
2018-09-11T02:17:28.300Z,98002.00
2018-09-11T02:19:57.540Z,98001.00
2018-09-11T02:22:26.824Z,98010.00
2018-09-11T02:24:56.004Z,98011.00
2018-09-11T02:27:25.219Z,98009.00
2018-09-11T02:29:54.388Z,98009.00
2018-09-11T02:32:23.588Z,98014.00
2018-09-11T02:34:52.764Z,98003.00
2018-09-11T02:37:21.956Z,98009.00
2018-09-11T02:39:51.137Z,98004.00
2018-09-11T02:42:20.352Z,98002.00
2018-09-11T02:44:49.544Z,97989.00
2018-09-11T02:47:18.721Z,97995.00
2018-09-11T02:49:47.916Z,97984.00
2018-09-11T02:52:17.098Z,97998.00
2018-09-11T02:54:46.329Z,97986.00
2018-09-11T02:57:15.504Z,97987.00
2018-09-11T02:59:44.699Z,97990.00
2018-09-11T03:02:13.884Z,97989.00
2018-09-11T03:04:43.085Z,97983.00
2018-09-11T03:07:12.256Z,97990.00
2018-09-11T03:09:41.480Z,97994.00
2018-09-11T03:12:10.672Z,97996.00
2018-09-11T03:14:39.868Z,97999.00
2018-09-11T03:17:09.280Z,97994.00
2018-09-11T03:19:38.502Z,97993.00
2018-09-11T03:22:07.693Z,98003.00
2018-09-11T03:24:36.893Z,98002.00
2018-09-11T03:27:06.085Z,98002.00
2018-09-11T03:29:35.303Z,97996.00
2018-09-11T03:32:04.478Z,97996.00
2018-09-11T03:34:33.672Z,97987.00
2018-09-11T03:37:02.842Z,97984.00
2018-09-11T03:39:32.044Z,97986.00
2018-09-11T03:42:01.227Z,97992.00
2018-09-11T03:44:30.425Z,97993.00
2018-09-11T03:46:59.608Z,97994.00
2018-09-11T03:49:28.800Z,97987.00
2018-09-11T03:51:57.984Z,97987.00
2018-09-11T03:54:27.216Z,97986.00
2018-09-11T03:56:56.419Z,97985.00
2018-09-11T03:59:25.625Z,97991.00
2018-09-11T04:01:54.812Z,97988.00
2018-09-11T04:04:24.006Z,97987.00
2018-09-11T04:06:53.182Z,97986.00
2018-09-11T04:09:22.428Z,97986.00
2018-09-11T04:11:51.644Z,97987.00
2018-09-11T04:14:20.840Z,97986.00
2018-09-11T04:16:50.000Z,97988.00
2018-09-11T04:19:19.196Z,97982.00
2018-09-11T04:21:48.436Z,97988.00
2018-09-11T04:24:17.656Z,97978.00
2018-09-11T04:26:46.858Z,97982.00
2018-09-11T04:29:16.056Z,97981.00
2018-09-11T04:31:45.235Z,97982.00
2018-09-11T04:34:14.428Z,97971.00
2018-09-11T04:36:43.604Z,97989.00
2018-09-11T04:39:12.812Z,97984.00
2018-09-11T04:41:41.996Z,97981.00
2018-09-11T04:44:11.653Z,97988.00
2018-09-11T04:46:40.921Z,97988.00
2018-09-11T04:49:10.141Z,97996.00
2018-09-11T04:51:39.339Z,97995.00
2018-09-11T04:54:08.536Z,98004.00
2018-09-11T04:56:37.768Z,98001.00
2018-09-11T04:59:07.004Z,98002.00
2018-09-11T05:01:36.201Z,97997.00
2018-09-11T05:04:05.416Z,97994.00
2018-09-11T05:06:34.592Z,97999.00
2018-09-11T05:09:04.082Z,98005.00
2018-09-11T05:11:33.324Z,98003.00
2018-09-11T05:14:02.555Z,98006.00
2018-09-11T05:16:32.592Z,98004.00
2018-09-11T05:19:01.852Z,98024.00
2018-09-11T05:21:31.036Z,98015.00
2018-09-11T05:24:00.265Z,98014.00
2018-09-11T05:26:29.536Z,98008.00
2018-09-11T05:28:58.767Z,98021.00
2018-09-11T05:31:27.996Z,98013.00
2018-09-11T05:33:57.199Z,98025.00
2018-09-11T05:36:26.377Z,98032.00
2018-09-11T05:38:55.608Z,98029.00
2018-09-11T05:41:24.800Z,98042.00
2018-09-11T05:43:54.035Z,98038.00
2018-09-11T05:46:23.224Z,98044.00
2018-09-11T05:48:52.428Z,98051.00
2018-09-11T05:51:21.608Z,98043.00
2018-09-11T05:53:50.860Z,98046.00
2018-09-11T05:56:20.578Z,98052.00
2018-09-11T05:58:56.476Z,98045.00
2018-09-11T06:01:25.681Z,98053.00
2018-09-11T06:03:54.906Z,98047.00
2018-09-11T06:06:24.112Z,98044.00
2018-09-11T06:08:53.271Z,98045.00
2018-09-11T06:11:22.512Z,98049.00
2018-09-11T06:13:51.977Z,98060.00
2018-09-11T06:16:21.251Z,98050.00
2018-09-11T06:18:50.481Z,98048.00
2018-09-11T06:21:19.774Z,98048.00
2018-09-11T06:23:48.961Z,98054.00
2018-09-11T06:26:18.164Z,98059.00
2018-09-11T06:28:47.360Z,98074.00
2018-09-11T06:31:16.565Z,98066.00
2018-09-11T06:33:45.744Z,98068.00
2018-09-11T06:36:14.943Z,98074.00
2018-09-11T06:38:44.132Z,98083.00
2018-09-11T06:41:13.333Z,98074.00
2018-09-11T06:43:42.540Z,98074.00
2018-09-11T06:46:11.756Z,98067.00
2018-09-11T06:48:41.302Z,98070.00
2018-09-11T06:51:10.551Z,98063.00
2018-09-11T06:53:39.724Z,98066.00
2018-09-11T06:56:08.976Z,98065.00
2018-09-11T06:58:38.178Z,98070.00
2018-09-11T07:01:07.421Z,98072.00
2018-09-11T07:03:36.638Z,98075.00
2018-09-11T07:06:05.857Z,98065.00
2018-09-11T07:08:35.081Z,98067.00
2018-09-11T07:11:04.306Z,98066.00
2018-09-11T07:13:33.500Z,98064.00
2018-09-11T07:16:02.732Z,98066.00
2018-09-11T07:18:31.929Z,98061.00
2018-09-11T07:21:01.316Z,98060.00
2018-09-11T07:23:30.685Z,98055.00
2018-09-11T07:25:59.967Z,98059.00
2018-09-11T07:28:29.153Z,98047.00
2018-09-11T07:30:58.368Z,98052.00
2018-09-11T07:33:27.557Z,98056.00
2018-09-11T07:35:57.185Z,98043.00
2018-09-11T07:38:26.364Z,98056.00
2018-09-11T07:40:55.808Z,98053.00
2018-09-11T07:43:24.992Z,98055.00
2018-09-11T07:46:00.964Z,98055.00
2018-09-11T07:48:30.401Z,98055.00
2018-09-11T07:50:59.625Z,98060.00
2018-09-11T07:53:28.825Z,98055.00
2018-09-11T07:55:58.107Z,98050.00
2018-09-11T07:58:27.279Z,98056.00
2018-09-11T08:00:56.534Z,98054.00
2018-09-11T08:03:25.739Z,98057.00
2018-09-11T08:05:54.959Z,98054.00
2018-09-11T08:08:24.149Z,98057.00
2018-09-11T08:10:53.747Z,98051.00
2018-09-11T08:13:22.933Z,98059.00
2018-09-11T08:15:52.158Z,98054.00
2018-09-11T08:18:21.348Z,98060.00
2018-09-11T08:20:50.560Z,98048.00
2018-09-11T08:23:19.763Z,98059.00
2018-09-11T08:25:49.012Z,98051.00
2018-09-11T08:28:18.199Z,98030.00
2018-09-11T08:30:47.444Z,98050.00
2018-09-11T08:33:16.669Z,98043.00
2018-09-11T08:35:45.892Z,98053.00
2018-09-11T08:38:15.084Z,98049.00
2018-09-11T08:40:44.288Z,98053.00
2018-09-11T08:43:13.452Z,98049.00
2018-09-11T08:45:42.631Z,98036.00
2018-09-11T08:48:11.828Z,98045.00
2018-09-11T08:50:41.035Z,98045.00
2018-09-11T08:53:10.203Z,98044.00
2018-09-11T08:55:39.401Z,98041.00
2018-09-11T08:58:08.584Z,98047.00
2018-09-11T09:00:37.779Z,98045.00
2018-09-11T09:03:07.265Z,98036.00
2018-09-11T09:05:36.467Z,98048.00
2018-09-11T09:08:05.672Z,98052.00
2018-09-11T09:10:34.944Z,98045.00
2018-09-11T09:13:04.129Z,98058.00
2018-09-11T09:15:33.344Z,98056.00
2018-09-11T09:18:02.521Z,98040.00
2018-09-11T09:20:31.720Z,98041.00
2018-09-11T09:23:00.925Z,98035.00
2018-09-11T09:25:30.488Z,98050.00
2018-09-11T09:27:59.672Z,98045.00
2018-09-11T09:30:28.860Z,98042.00
2018-09-11T09:32:58.272Z,98027.00
2018-09-11T09:35:33.720Z,98030.00
2018-09-11T09:38:02.987Z,98031.00
2018-09-11T09:40:32.197Z,98037.00
2018-09-11T09:43:01.420Z,98036.00
2018-09-11T09:45:30.597Z,98031.00
2018-09-11T09:47:59.820Z,98038.00
2018-09-11T09:50:29.008Z,98036.00
2018-09-11T09:52:58.206Z,98035.00
2018-09-11T09:55:27.412Z,98043.00
2018-09-11T09:57:56.603Z,98030.00
2018-09-11T10:01:35.016Z,98038.00
2018-09-11T10:04:04.230Z,98022.00
2018-09-11T10:06:33.435Z,98039.00
2018-09-11T10:09:02.647Z,98038.00
2018-09-11T10:11:31.876Z,98032.00
2018-09-11T10:14:01.066Z,98049.00
2018-09-11T10:16:30.271Z,98048.00
2018-09-11T10:18:59.501Z,98036.00
2018-09-11T10:21:28.693Z,98034.00
2018-09-11T10:23:57.872Z,98024.00
2018-09-11T10:26:27.080Z,98030.00
2018-09-11T10:28:56.271Z,98039.00
2018-09-11T10:31:25.461Z,98024.00
2018-09-11T10:33:54.841Z,98033.00
2018-09-11T10:36:23.972Z,98027.00
2018-09-11T10:38:53.148Z,98021.00
2018-09-11T10:41:22.353Z,98026.00
2018-09-11T10:43:51.528Z,98024.00
2018-09-11T10:46:20.794Z,98027.00
2018-09-11T10:48:50.138Z,98018.00
2018-09-11T10:51:19.340Z,98014.00
2018-09-11T10:53:48.556Z,98028.00
2018-09-11T10:56:17.765Z,98010.00
2018-09-11T10:58:46.929Z,98009.00
2018-09-11T11:01:16.194Z,98008.00
2018-09-11T11:03:45.578Z,98025.00
2018-09-11T11:06:14.755Z,98022.00
2018-09-11T11:08:43.962Z,98022.00
2018-09-11T11:11:13.169Z,98024.00
2018-09-11T11:13:42.396Z,98021.00
2018-09-11T11:16:11.579Z,98027.00
2018-09-11T11:18:40.784Z,98008.00
2018-09-11T11:21:09.969Z,98015.00
2018-09-11T11:23:39.201Z,98001.00
2018-09-11T11:26:08.385Z,97995.00
2018-09-11T11:28:37.596Z,98004.00
2018-09-11T11:31:06.776Z,98000.00
2018-09-11T11:33:36.002Z,97993.00
2018-09-11T11:36:05.281Z,98003.00
2018-09-11T11:38:34.423Z,97986.00
2018-09-11T11:41:03.616Z,97979.00
2018-09-11T11:43:32.836Z,97979.00
2018-09-11T11:46:02.197Z,97980.00
2018-09-11T11:48:31.401Z,97980.00
2018-09-11T11:51:00.640Z,97973.00
2018-09-11T11:53:29.840Z,97981.00
2018-09-11T11:55:59.021Z,97977.00
2018-09-11T11:58:28.213Z,97982.00
2018-09-11T12:00:57.389Z,97986.00
2018-09-11T12:03:26.576Z,97984.00
2018-09-11T12:05:55.752Z,97972.00
2018-09-11T12:08:24.968Z,97982.00
2018-09-11T12:10:54.173Z,97976.00
2018-09-11T12:13:23.369Z,97968.00
2018-09-11T12:15:52.560Z,97967.00
2018-09-11T12:18:21.784Z,97965.00
2018-09-11T12:20:50.977Z,97982.00
2018-09-11T12:23:20.180Z,97962.00
2018-09-11T12:25:49.391Z,97967.00
2018-09-11T12:28:18.597Z,97967.00
2018-09-11T12:30:47.918Z,97970.00
2018-09-11T12:33:17.204Z,97976.00
2018-09-11T12:35:46.420Z,97974.00
2018-09-11T12:38:15.612Z,97973.00
2018-09-11T12:40:44.838Z,97969.00
2018-09-11T12:43:14.032Z,97963.00
2018-09-11T12:45:43.240Z,97973.00
2018-09-11T12:48:12.897Z,97971.00
2018-09-11T12:50:41.655Z,97976.00
2018-09-11T12:53:10.901Z,97979.00
2018-09-11T12:55:40.129Z,97979.00
2018-09-11T12:58:09.481Z,97976.00
2018-09-11T13:00:38.685Z,97978.00
2018-09-11T13:03:07.888Z,97981.00
2018-09-11T13:05:37.070Z,97982.00
2018-09-11T13:08:06.286Z,97982.00
2018-09-11T13:10:35.504Z,97979.00
2018-09-11T13:13:04.902Z,97985.00
2018-09-11T13:15:34.116Z,97982.00
2018-09-11T13:18:03.364Z,97985.00
2018-09-11T13:20:32.596Z,97982.00
2018-09-11T13:23:01.949Z,97989.00
2018-09-11T13:25:31.205Z,97996.00
2018-09-11T13:28:00.520Z,98001.00
2018-09-11T13:30:29.745Z,97987.00
2018-09-11T13:32:58.936Z,97983.00
2018-09-11T13:35:28.100Z,97986.00
2018-09-11T13:37:57.301Z,97988.00
2018-09-11T13:40:26.482Z,97976.00
2018-09-11T13:42:55.712Z,97986.00
2018-09-11T13:45:24.892Z,97986.00
2018-09-11T13:47:54.105Z,97975.00
2018-09-11T13:50:23.297Z,97974.00
2018-09-11T13:52:52.496Z,97972.00
2018-09-11T13:55:21.740Z,97983.00
2018-09-11T13:57:50.974Z,97973.00
2018-09-11T14:00:20.165Z,97976.00
2018-09-11T14:02:49.356Z,97969.00
2018-09-11T14:05:18.537Z,97962.00
2018-09-11T14:07:47.735Z,97961.00
2018-09-11T14:10:16.957Z,97968.00
2018-09-11T14:12:46.156Z,97967.00
2018-09-11T14:15:15.804Z,97973.00
2018-09-11T14:17:45.021Z,97967.00
2018-09-11T14:20:14.211Z,97974.00
2018-09-11T14:22:43.428Z,97976.00
2018-09-11T14:25:12.629Z,97977.00
2018-09-11T14:27:41.821Z,97976.00
2018-09-11T14:30:11.061Z,97975.00
2018-09-11T14:32:40.270Z,97980.00
2018-09-11T14:35:09.504Z,97975.00
2018-09-11T14:37:38.696Z,97972.00
2018-09-11T14:40:07.912Z,97971.00
2018-09-11T14:42:37.096Z,97966.00
2018-09-11T14:45:06.356Z,97972.00
2018-09-11T14:47:40.853Z,97966.00
2018-09-11T14:50:10.129Z,97964.00
2018-09-11T14:52:39.558Z,97954.00
2018-09-11T14:55:09.385Z,97944.00
2018-09-11T14:57:39.793Z,97942.00
2018-09-11T15:00:09.088Z,97946.00
2018-09-11T15:02:38.227Z,97950.00
2018-09-11T15:05:07.488Z,97948.00
2018-09-11T15:07:36.700Z,97945.00
2018-09-11T15:10:05.937Z,97947.00
2018-09-11T15:12:35.124Z,97945.00
2018-09-11T15:15:04.347Z,97949.00
2018-09-11T15:17:34.332Z,97947.00
2018-09-11T15:20:03.533Z,97939.00
2018-09-11T15:22:32.825Z,97945.00
2018-09-11T15:25:02.132Z,97943.00
2018-09-11T15:27:31.305Z,97939.00
2018-09-11T15:30:00.558Z,97943.00
2018-09-11T15:32:29.709Z,97940.00
2018-09-11T15:34:58.965Z,97934.00
2018-09-11T15:37:28.133Z,97946.00
2018-09-11T15:39:57.377Z,97940.00
2018-09-11T15:42:26.560Z,97937.00
2018-09-11T15:44:55.740Z,97936.00
2018-09-11T15:47:24.917Z,97945.00
2018-09-11T15:49:54.117Z,97935.00
2018-09-11T15:52:23.296Z,97939.00
2018-09-11T15:54:52.508Z,97930.00
2018-09-11T15:57:21.712Z,97933.00
2018-09-11T15:59:50.909Z,97924.00
2018-09-11T16:02:20.092Z,97931.00
2018-09-11T16:04:49.296Z,97933.00
2018-09-11T16:07:18.457Z,97927.00
2018-09-11T16:09:47.685Z,97929.00
2018-09-11T16:12:16.872Z,97931.00
2018-09-11T16:14:46.066Z,97923.00
2018-09-11T16:17:15.293Z,97926.00
2018-09-11T16:19:44.476Z,97924.00
2018-09-11T16:22:13.789Z,97925.00
2018-09-11T16:24:42.943Z,97929.00
2018-09-11T16:27:12.137Z,97948.00
2018-09-11T16:29:41.545Z,97928.00
2018-09-11T16:32:10.723Z,97931.00
2018-09-11T16:34:39.921Z,97930.00
2018-09-11T16:37:09.092Z,97930.00
2018-09-11T16:39:38.288Z,97930.00
2018-09-11T16:42:07.536Z,97923.00
2018-09-11T16:44:36.984Z,97920.00
2018-09-11T16:47:06.373Z,97926.00
2018-09-11T16:49:35.576Z,97925.00
2018-09-11T16:52:04.774Z,97921.00
2018-09-11T16:54:34.076Z,97908.00
2018-09-11T16:57:03.255Z,97923.00
2018-09-11T16:59:32.468Z,97929.00
2018-09-11T17:02:01.702Z,97928.00
2018-09-11T17:04:30.900Z,97919.00
2018-09-11T17:07:00.115Z,97921.00
2018-09-11T17:09:29.324Z,97922.00
2018-09-11T17:11:58.569Z,97917.00
2018-09-11T17:14:27.776Z,97914.00
2018-09-11T17:16:56.944Z,97906.00
2018-09-11T17:19:26.152Z,97900.00
2018-09-11T17:21:55.620Z,97909.00
2018-09-11T17:24:24.821Z,97904.00
2018-09-11T17:26:54.032Z,97912.00
2018-09-11T17:29:23.301Z,97919.00
2018-09-11T17:31:52.480Z,97909.00
2018-09-11T17:34:21.687Z,97913.00
2018-09-11T17:36:50.896Z,97916.00
2018-09-11T17:39:20.100Z,97913.00
2018-09-11T17:41:49.332Z,97916.00
2018-09-11T17:44:18.497Z,97919.00
2018-09-11T17:46:47.704Z,97925.00
2018-09-11T17:49:16.982Z,97924.00
2018-09-11T17:51:46.117Z,97933.00
2018-09-11T17:54:15.294Z,97933.00
2018-09-11T17:56:44.494Z,97938.00
2018-09-11T17:59:13.660Z,97940.00
2018-09-11T18:01:42.841Z,97929.00
2018-09-11T18:04:12.032Z,97938.00
2018-09-11T18:06:41.248Z,97941.00
2018-09-11T18:09:10.429Z,97947.00
2018-09-11T18:11:39.668Z,97958.00
2018-09-11T18:14:08.856Z,97955.00
2018-09-11T18:16:38.043Z,97955.00
2018-09-11T18:19:07.300Z,97954.00
2018-09-11T18:21:36.489Z,97964.00
2018-09-11T18:24:05.669Z,97961.00
2018-09-11T18:26:39.615Z,97970.00
2018-09-11T18:29:09.211Z,97971.00
2018-09-11T18:31:38.449Z,97973.00
2018-09-11T18:34:07.684Z,97978.00
2018-09-11T18:36:36.969Z,97975.00
2018-09-11T18:39:08.562Z,97968.00
2018-09-11T18:41:37.769Z,97971.00
2018-09-11T18:44:06.980Z,97971.00
2018-09-11T18:46:36.212Z,97974.00
2018-09-11T18:49:05.561Z,97986.00
2018-09-11T18:51:34.798Z,97982.00
2018-09-11T18:54:03.987Z,97978.00
2018-09-11T18:56:33.220Z,97988.00
2018-09-11T19:01:53.962Z,97994.00
2018-09-11T19:04:23.141Z,97988.00
2018-09-11T19:06:52.331Z,97994.00
2018-09-11T19:09:21.530Z,97993.00
2018-09-11T19:11:50.740Z,97995.00
2018-09-11T19:14:19.929Z,97996.00
2018-09-11T19:16:49.164Z,97999.00
2018-09-11T19:19:18.353Z,98005.00
2018-09-11T19:21:47.561Z,98006.00
2018-09-11T19:24:16.749Z,98011.00
2018-09-11T19:26:45.995Z,98006.00
2018-09-11T19:29:15.242Z,97999.00
2018-09-11T19:31:44.446Z,98012.00
2018-09-11T19:36:49.068Z,98008.00
2018-09-11T19:39:18.227Z,98016.00
2018-09-11T19:41:47.423Z,98015.00
2018-09-11T19:44:16.610Z,98013.00
2018-09-11T19:46:45.801Z,98014.00
2018-09-11T19:49:14.981Z,98021.00
2018-09-11T19:51:44.172Z,98018.00
2018-09-11T19:54:13.371Z,98018.00
2018-09-11T19:56:42.948Z,98022.00
2018-09-11T19:59:18.464Z,98029.00
2018-09-11T20:01:47.668Z,98014.00
2018-09-11T20:04:16.861Z,98018.00
2018-09-11T20:06:46.055Z,98023.00
2018-09-11T20:09:15.229Z,98016.00
2018-09-11T20:11:44.448Z,98026.00
2018-09-11T20:14:13.646Z,98028.00
2018-09-11T20:16:42.888Z,98026.00
2018-09-11T20:19:12.081Z,98029.00
2018-09-11T20:21:41.281Z,98023.00
2018-09-11T20:24:10.507Z,98023.00
2018-09-11T20:26:39.768Z,98025.00
2018-09-11T20:29:08.937Z,98032.00
2018-09-11T20:31:38.300Z,98029.00
2018-09-11T20:34:07.549Z,98029.00
2018-09-11T20:36:36.789Z,98042.00
2018-09-11T20:39:09.584Z,98038.00
2018-09-11T20:41:38.812Z,98040.00
2018-09-11T20:44:08.737Z,98053.00
2018-09-11T20:46:37.972Z,98054.00
2018-09-11T20:49:07.153Z,98048.00
2018-09-11T20:51:36.383Z,98066.00
2018-09-11T20:54:05.626Z,98057.00
2018-09-11T20:56:34.821Z,98050.00
2018-09-11T20:59:04.001Z,98053.00
2018-09-11T21:01:33.213Z,98058.00
2018-09-11T21:04:02.460Z,98048.00
2018-09-11T21:06:31.744Z,98050.00
2018-09-11T21:09:00.941Z,98056.00
2018-09-11T21:11:30.144Z,98053.00
2018-09-11T21:13:59.312Z,98053.00
2018-09-11T21:16:28.502Z,98053.00
2018-09-11T21:18:57.689Z,98043.00
2018-09-11T21:21:26.888Z,98050.00
2018-09-11T21:23:56.068Z,98049.00
2018-09-11T21:26:25.328Z,98044.00
2018-09-11T21:28:54.510Z,98046.00
2018-09-11T21:31:23.715Z,98044.00
2018-09-11T21:33:52.877Z,98050.00
2018-09-11T21:36:22.173Z,98044.00
2018-09-11T21:38:51.357Z,98046.00
2018-09-11T21:41:20.624Z,98049.00
2018-09-11T21:43:49.805Z,98051.00
2018-09-11T21:46:19.056Z,98052.00
2018-09-11T21:48:48.284Z,98052.00
2018-09-11T21:51:17.490Z,98048.00
2018-09-11T21:53:46.684Z,98062.00
2018-09-11T21:56:15.896Z,98052.00
2018-09-11T21:58:45.117Z,98048.00
2018-09-11T22:01:19.568Z,98055.00
2018-09-11T22:03:48.780Z,98053.00
2018-09-11T22:06:17.960Z,98057.00
2018-09-11T22:08:47.161Z,98057.00
2018-09-11T22:11:16.372Z,98058.00
2018-09-11T22:13:48.688Z,98063.00
2018-09-11T22:16:17.849Z,98064.00
2018-09-11T22:18:47.044Z,98066.00
2018-09-11T22:21:16.235Z,98067.00
2018-09-11T22:23:45.430Z,98066.00
2018-09-11T22:26:14.613Z,98048.00
2018-09-11T22:28:43.822Z,98052.00
2018-09-11T22:31:12.996Z,98040.00
2018-09-11T22:33:42.210Z,98047.00
2018-09-11T22:36:11.378Z,98047.00
2018-09-11T22:38:40.569Z,98053.00
2018-09-11T22:41:09.752Z,98062.00
2018-09-11T22:43:39.136Z,98047.00
2018-09-11T22:46:08.373Z,98044.00
2018-09-11T22:48:37.573Z,98052.00
2018-09-11T22:51:07.256Z,98045.00
2018-09-11T22:53:36.789Z,98045.00
2018-09-11T22:56:05.959Z,98043.00
2018-09-11T22:58:35.169Z,98035.00
2018-09-11T23:01:04.345Z,98031.00
2018-09-11T23:03:33.554Z,98036.00
2018-09-11T23:06:03.288Z,98031.00
2018-09-11T23:08:32.495Z,98034.00
2018-09-11T23:11:01.712Z,98031.00
2018-09-11T23:13:30.925Z,98030.00
2018-09-11T23:16:00.142Z,98030.00
2018-09-11T23:18:29.497Z,98026.00
2018-09-11T23:20:58.687Z,98015.00
2018-09-11T23:23:27.893Z,98018.00
2018-09-11T23:25:57.072Z,98022.00
2018-09-11T23:28:26.264Z,98018.00
2018-09-11T23:30:55.493Z,98018.00
2018-09-11T23:33:24.720Z,98027.00
2018-09-11T23:35:53.908Z,98029.00
2018-09-11T23:38:23.116Z,98028.00
2018-09-11T23:40:52.293Z,98012.00
2018-09-11T23:43:21.548Z,98015.00
2018-09-11T23:45:50.712Z,98023.00
2018-09-11T23:48:19.920Z,98022.00
2018-09-11T23:50:49.098Z,98016.00
2018-09-11T23:53:18.440Z,98018.00
2018-09-11T23:55:47.643Z,98022.00
2018-09-11T23:58:16.832Z,98013.00
